sensor_id;sensor_type;location;lat;lon;timestamp;temperature;humidity
23475;DHT22;11910;52.086;21.066;2023-05-07T00:02:02;7.90;99.90
23475;DHT22;11910;52.086;21.066;2023-05-07T00:04:29;7.90;99.90
23475;DHT22;11910;52.086;21.066;2023-05-07T00:07:01;8.00;99.90
23475;DHT22;11910;52.086;21.066;2023-05-07T00:09:26;7.90;99.90
23475;DHT22;11910;52.086;21.066;2023-05-07T00:11:52;7.90;99.90
23475;DHT22;11910;52.086;21.066;2023-05-07T00:14:17;7.80;99.90
23475;DHT22;11910;52.086;21.066;2023-05-07T00:16:43;7.80;99.90
23475;DHT22;11910;52.086;21.066;2023-05-07T00:19:09;7.70;99.90
23475;DHT22;11910;52.086;21.066;2023-05-07T00:21:34;7.60;99.90
23475;DHT22;11910;52.086;21.066;2023-05-07T00:24:00;7.60;99.90
23475;DHT22;11910;52.086;21.066;2023-05-07T00:26:25;7.70;99.90
23475;DHT22;11910;52.086;21.066;2023-05-07T00:28:51;7.60;99.90
23475;DHT22;11910;52.086;21.066;2023-05-07T00:31:17;7.60;99.90
23475;DHT22;11910;52.086;21.066;2023-05-07T00:33:42;7.50;99.90
23475;DHT22;11910;52.086;21.066;2023-05-07T00:36:08;7.50;99.90
23475;DHT22;11910;52.086;21.066;2023-05-07T00:38:33;7.50;99.90
23475;DHT22;11910;52.086;21.066;2023-05-07T00:40:59;7.50;99.90
23475;DHT22;11910;52.086;21.066;2023-05-07T00:43:25;7.70;99.90
23475;DHT22;11910;52.086;21.066;2023-05-07T00:45:50;7.70;99.90
23475;DHT22;11910;52.086;21.066;2023-05-07T00:48:17;7.70;99.90
23475;DHT22;11910;52.086;21.066;2023-05-07T00:50:42;7.60;99.90
23475;DHT22;11910;52.086;21.066;2023-05-07T00:53:08;7.50;99.90
23475;DHT22;11910;52.086;21.066;2023-05-07T00:55:35;7.50;99.90
23475;DHT22;11910;52.086;21.066;2023-05-07T00:58:01;7.50;99.90
23475;DHT22;11910;52.086;21.066;2023-05-07T01:00:26;7.50;99.90
23475;DHT22;11910;52.086;21.066;2023-05-07T01:02:52;7.50;99.90
23475;DHT22;11910;52.086;21.066;2023-05-07T01:05:19;7.60;99.90
23475;DHT22;11910;52.086;21.066;2023-05-07T01:07:45;7.60;99.90
23475;DHT22;11910;52.086;21.066;2023-05-07T01:10:12;7.60;99.90
23475;DHT22;11910;52.086;21.066;2023-05-07T01:12:39;7.80;99.90
23475;DHT22;11910;52.086;21.066;2023-05-07T01:15:06;7.80;99.90
23475;DHT22;11910;52.086;21.066;2023-05-07T01:17:36;7.80;99.90
23475;DHT22;11910;52.086;21.066;2023-05-07T01:20:03;7.80;99.90
23475;DHT22;11910;52.086;21.066;2023-05-07T01:22:34;7.70;99.90
23475;DHT22;11910;52.086;21.066;2023-05-07T01:25:05;7.60;99.90
23475;DHT22;11910;52.086;21.066;2023-05-07T01:27:31;7.50;99.90
23475;DHT22;11910;52.086;21.066;2023-05-07T01:29:58;7.60;99.90
23475;DHT22;11910;52.086;21.066;2023-05-07T01:32:40;7.60;99.90
23475;DHT22;11910;52.086;21.066;2023-05-07T01:35:11;7.60;99.90
23475;DHT22;11910;52.086;21.066;2023-05-07T01:37:38;7.60;99.90
23475;DHT22;11910;52.086;21.066;2023-05-07T01:40:04;7.70;99.90
23475;DHT22;11910;52.086;21.066;2023-05-07T01:42:31;7.70;99.90
23475;DHT22;11910;52.086;21.066;2023-05-07T01:44:57;7.80;99.90
23475;DHT22;11910;52.086;21.066;2023-05-07T01:47:23;7.80;99.90
23475;DHT22;11910;52.086;21.066;2023-05-07T01:49:49;7.80;99.90
23475;DHT22;11910;52.086;21.066;2023-05-07T01:52:15;7.80;99.90
23475;DHT22;11910;52.086;21.066;2023-05-07T01:54:41;7.80;99.90
23475;DHT22;11910;52.086;21.066;2023-05-07T01:57:06;7.80;99.90
23475;DHT22;11910;52.086;21.066;2023-05-07T01:59:32;7.70;99.90
23475;DHT22;11910;52.086;21.066;2023-05-07T02:01:58;7.70;99.90
23475;DHT22;11910;52.086;21.066;2023-05-07T02:04:23;7.70;99.90
23475;DHT22;11910;52.086;21.066;2023-05-07T02:06:49;7.60;99.90
23475;DHT22;11910;52.086;21.066;2023-05-07T02:09:15;7.50;99.90
23475;DHT22;11910;52.086;21.066;2023-05-07T02:11:41;7.50;99.90
23475;DHT22;11910;52.086;21.066;2023-05-07T02:14:06;7.60;99.90
23475;DHT22;11910;52.086;21.066;2023-05-07T02:16:32;7.70;99.90
23475;DHT22;11910;52.086;21.066;2023-05-07T02:18:57;7.70;99.90
23475;DHT22;11910;52.086;21.066;2023-05-07T02:21:24;7.70;99.90
23475;DHT22;11910;52.086;21.066;2023-05-07T02:23:50;7.70;99.90
23475;DHT22;11910;52.086;21.066;2023-05-07T02:26:16;7.60;99.90
23475;DHT22;11910;52.086;21.066;2023-05-07T02:28:41;7.60;99.90
23475;DHT22;11910;52.086;21.066;2023-05-07T02:31:07;7.60;99.90
23475;DHT22;11910;52.086;21.066;2023-05-07T02:33:32;7.60;99.90
23475;DHT22;11910;52.086;21.066;2023-05-07T02:36:09;7.60;99.90
23475;DHT22;11910;52.086;21.066;2023-05-07T02:38:35;7.70;99.90
23475;DHT22;11910;52.086;21.066;2023-05-07T02:41:01;7.60;99.90
23475;DHT22;11910;52.086;21.066;2023-05-07T02:43:27;7.60;99.90
23475;DHT22;11910;52.086;21.066;2023-05-07T02:46:05;7.60;99.90
23475;DHT22;11910;52.086;21.066;2023-05-07T02:48:31;7.60;99.90
23475;DHT22;11910;52.086;21.066;2023-05-07T02:50:58;7.60;99.90
23475;DHT22;11910;52.086;21.066;2023-05-07T02:53:24;7.60;99.90
23475;DHT22;11910;52.086;21.066;2023-05-07T02:55:52;7.50;99.90
23475;DHT22;11910;52.086;21.066;2023-05-07T02:58:18;7.40;99.90
23475;DHT22;11910;52.086;21.066;2023-05-07T03:00:44;7.50;99.90
23475;DHT22;11910;52.086;21.066;2023-05-07T03:03:09;7.60;99.90
23475;DHT22;11910;52.086;21.066;2023-05-07T03:05:36;7.60;99.90
23475;DHT22;11910;52.086;21.066;2023-05-07T03:08:02;7.60;99.90
23475;DHT22;11910;52.086;21.066;2023-05-07T03:10:29;7.60;99.90
23475;DHT22;11910;52.086;21.066;2023-05-07T03:12:55;7.60;99.90
23475;DHT22;11910;52.086;21.066;2023-05-07T03:15:21;7.50;99.90
23475;DHT22;11910;52.086;21.066;2023-05-07T03:17:47;7.50;99.90
23475;DHT22;11910;52.086;21.066;2023-05-07T03:20:13;7.50;99.90
23475;DHT22;11910;52.086;21.066;2023-05-07T03:22:39;7.40;99.90
23475;DHT22;11910;52.086;21.066;2023-05-07T03:25:05;7.40;99.90
23475;DHT22;11910;52.086;21.066;2023-05-07T03:27:31;7.50;99.90
23475;DHT22;11910;52.086;21.066;2023-05-07T03:29:57;7.50;99.90
23475;DHT22;11910;52.086;21.066;2023-05-07T03:32:22;7.50;99.90
23475;DHT22;11910;52.086;21.066;2023-05-07T03:34:48;7.60;99.90
23475;DHT22;11910;52.086;21.066;2023-05-07T03:37:14;7.50;99.90
23475;DHT22;11910;52.086;21.066;2023-05-07T03:39:39;7.60;99.90
23475;DHT22;11910;52.086;21.066;2023-05-07T03:42:05;7.60;99.90
23475;DHT22;11910;52.086;21.066;2023-05-07T03:44:31;7.70;99.90
23475;DHT22;11910;52.086;21.066;2023-05-07T03:46:56;7.60;99.90
23475;DHT22;11910;52.086;21.066;2023-05-07T03:49:22;7.50;99.90
23475;DHT22;11910;52.086;21.066;2023-05-07T03:51:48;7.60;99.90
23475;DHT22;11910;52.086;21.066;2023-05-07T03:54:13;7.50;99.90
23475;DHT22;11910;52.086;21.066;2023-05-07T03:56:39;7.60;99.90
23475;DHT22;11910;52.086;21.066;2023-05-07T03:59:04;7.60;99.90
23475;DHT22;11910;52.086;21.066;2023-05-07T04:01:30;7.50;99.90
23475;DHT22;11910;52.086;21.066;2023-05-07T04:03:56;7.60;99.90
23475;DHT22;11910;52.086;21.066;2023-05-07T04:06:21;7.60;99.90
23475;DHT22;11910;52.086;21.066;2023-05-07T04:08:47;7.70;99.90
23475;DHT22;11910;52.086;21.066;2023-05-07T04:11:13;7.70;99.90
23475;DHT22;11910;52.086;21.066;2023-05-07T04:13:38;7.70;99.90
23475;DHT22;11910;52.086;21.066;2023-05-07T04:16:06;7.70;99.90
23475;DHT22;11910;52.086;21.066;2023-05-07T04:18:31;7.70;99.90
23475;DHT22;11910;52.086;21.066;2023-05-07T04:20:57;7.70;99.90
23475;DHT22;11910;52.086;21.066;2023-05-07T04:23:23;7.70;99.90
23475;DHT22;11910;52.086;21.066;2023-05-07T04:25:48;7.60;99.90
23475;DHT22;11910;52.086;21.066;2023-05-07T04:28:14;7.70;99.90
23475;DHT22;11910;52.086;21.066;2023-05-07T04:30:39;7.70;99.90
23475;DHT22;11910;52.086;21.066;2023-05-07T04:33:07;7.60;99.90
23475;DHT22;11910;52.086;21.066;2023-05-07T04:35:32;7.60;99.90
23475;DHT22;11910;52.086;21.066;2023-05-07T04:37:58;7.60;99.90
23475;DHT22;11910;52.086;21.066;2023-05-07T04:40:24;7.60;99.90
23475;DHT22;11910;52.086;21.066;2023-05-07T04:42:50;7.70;99.90
23475;DHT22;11910;52.086;21.066;2023-05-07T04:45:15;7.80;99.90
23475;DHT22;11910;52.086;21.066;2023-05-07T04:47:41;7.90;99.90
23475;DHT22;11910;52.086;21.066;2023-05-07T04:50:07;7.80;99.90
23475;DHT22;11910;52.086;21.066;2023-05-07T04:52:33;7.80;99.90
23475;DHT22;11910;52.086;21.066;2023-05-07T04:55:00;7.80;99.90
23475;DHT22;11910;52.086;21.066;2023-05-07T04:57:26;7.90;99.90
23475;DHT22;11910;52.086;21.066;2023-05-07T04:59:52;7.90;99.90
23475;DHT22;11910;52.086;21.066;2023-05-07T05:02:18;7.90;99.90
23475;DHT22;11910;52.086;21.066;2023-05-07T05:04:43;8.00;99.90
23475;DHT22;11910;52.086;21.066;2023-05-07T05:07:09;8.00;99.90
23475;DHT22;11910;52.086;21.066;2023-05-07T05:09:34;8.00;99.90
23475;DHT22;11910;52.086;21.066;2023-05-07T05:12:00;7.90;99.90
23475;DHT22;11910;52.086;21.066;2023-05-07T05:14:25;7.80;99.90
23475;DHT22;11910;52.086;21.066;2023-05-07T05:16:51;7.80;99.90
23475;DHT22;11910;52.086;21.066;2023-05-07T05:19:17;7.80;99.90
23475;DHT22;11910;52.086;21.066;2023-05-07T05:21:42;7.80;99.90
23475;DHT22;11910;52.086;21.066;2023-05-07T05:24:08;7.80;99.90
23475;DHT22;11910;52.086;21.066;2023-05-07T05:26:34;7.80;99.90
23475;DHT22;11910;52.086;21.066;2023-05-07T05:28:59;7.90;99.90
23475;DHT22;11910;52.086;21.066;2023-05-07T05:31:25;7.90;99.90
23475;DHT22;11910;52.086;21.066;2023-05-07T05:33:51;7.90;99.90
23475;DHT22;11910;52.086;21.066;2023-05-07T05:36:17;8.00;99.90
23475;DHT22;11910;52.086;21.066;2023-05-07T05:38:43;8.10;99.90
23475;DHT22;11910;52.086;21.066;2023-05-07T05:41:10;8.10;99.90
23475;DHT22;11910;52.086;21.066;2023-05-07T05:43:35;8.10;99.90
23475;DHT22;11910;52.086;21.066;2023-05-07T05:46:01;8.20;99.90
23475;DHT22;11910;52.086;21.066;2023-05-07T05:48:29;8.20;99.90
23475;DHT22;11910;52.086;21.066;2023-05-07T05:50:55;8.20;99.90
23475;DHT22;11910;52.086;21.066;2023-05-07T05:53:20;8.20;99.90
23475;DHT22;11910;52.086;21.066;2023-05-07T05:55:46;8.20;99.90
23475;DHT22;11910;52.086;21.066;2023-05-07T05:58:12;8.20;99.90
23475;DHT22;11910;52.086;21.066;2023-05-07T06:00:37;8.20;99.90
23475;DHT22;11910;52.086;21.066;2023-05-07T06:03:03;8.30;99.90
23475;DHT22;11910;52.086;21.066;2023-05-07T06:05:28;8.30;99.90
23475;DHT22;11910;52.086;21.066;2023-05-07T06:07:55;8.40;99.90
23475;DHT22;11910;52.086;21.066;2023-05-07T06:10:21;8.30;99.90
23475;DHT22;11910;52.086;21.066;2023-05-07T06:12:46;8.20;99.90
23475;DHT22;11910;52.086;21.066;2023-05-07T06:15:12;8.20;99.90
23475;DHT22;11910;52.086;21.066;2023-05-07T06:17:38;8.30;99.90
23475;DHT22;11910;52.086;21.066;2023-05-07T06:20:04;8.30;99.90
23475;DHT22;11910;52.086;21.066;2023-05-07T06:22:29;8.50;99.90
23475;DHT22;11910;52.086;21.066;2023-05-07T06:24:55;8.60;99.90
23475;DHT22;11910;52.086;21.066;2023-05-07T06:27:21;8.70;99.90
23475;DHT22;11910;52.086;21.066;2023-05-07T06:29:48;8.70;99.90
23475;DHT22;11910;52.086;21.066;2023-05-07T06:32:13;8.90;99.90
23475;DHT22;11910;52.086;21.066;2023-05-07T06:34:40;8.90;99.90
23475;DHT22;11910;52.086;21.066;2023-05-07T06:37:06;9.00;99.90
23475;DHT22;11910;52.086;21.066;2023-05-07T06:39:32;8.90;99.90
23475;DHT22;11910;52.086;21.066;2023-05-07T06:41:59;8.90;99.90
23475;DHT22;11910;52.086;21.066;2023-05-07T06:44:25;9.00;99.90
23475;DHT22;11910;52.086;21.066;2023-05-07T06:46:51;9.00;99.90
23475;DHT22;11910;52.086;21.066;2023-05-07T06:49:16;9.10;99.90
23475;DHT22;11910;52.086;21.066;2023-05-07T06:51:42;9.10;99.90
23475;DHT22;11910;52.086;21.066;2023-05-07T06:54:07;9.20;99.90
23475;DHT22;11910;52.086;21.066;2023-05-07T06:56:33;9.30;99.90
23475;DHT22;11910;52.086;21.066;2023-05-07T06:59:00;9.40;99.90
23475;DHT22;11910;52.086;21.066;2023-05-07T07:01:26;9.50;99.90
23475;DHT22;11910;52.086;21.066;2023-05-07T07:03:51;9.70;99.90
23475;DHT22;11910;52.086;21.066;2023-05-07T07:06:17;9.80;99.90
23475;DHT22;11910;52.086;21.066;2023-05-07T07:08:43;9.90;99.90
23475;DHT22;11910;52.086;21.066;2023-05-07T07:11:10;9.90;99.90
23475;DHT22;11910;52.086;21.066;2023-05-07T07:13:35;9.80;99.90
23475;DHT22;11910;52.086;21.066;2023-05-07T07:16:01;9.80;99.90
23475;DHT22;11910;52.086;21.066;2023-05-07T07:18:27;9.70;99.90
23475;DHT22;11910;52.086;21.066;2023-05-07T07:20:53;9.60;99.90
23475;DHT22;11910;52.086;21.066;2023-05-07T07:23:18;9.60;99.90
23475;DHT22;11910;52.086;21.066;2023-05-07T07:25:44;9.60;99.90
23475;DHT22;11910;52.086;21.066;2023-05-07T07:28:10;9.60;99.90
23475;DHT22;11910;52.086;21.066;2023-05-07T07:30:37;9.60;99.90
23475;DHT22;11910;52.086;21.066;2023-05-07T07:33:02;9.60;99.90
23475;DHT22;11910;52.086;21.066;2023-05-07T07:35:32;9.50;99.90
23475;DHT22;11910;52.086;21.066;2023-05-07T07:37:58;9.50;99.90
23475;DHT22;11910;52.086;21.066;2023-05-07T07:40:24;9.50;99.90
23475;DHT22;11910;52.086;21.066;2023-05-07T07:42:53;9.50;99.90
23475;DHT22;11910;52.086;21.066;2023-05-07T07:45:19;9.50;99.90
23475;DHT22;11910;52.086;21.066;2023-05-07T07:47:45;9.60;99.90
23475;DHT22;11910;52.086;21.066;2023-05-07T07:50:11;9.70;99.90
23475;DHT22;11910;52.086;21.066;2023-05-07T07:52:37;9.80;99.90
23475;DHT22;11910;52.086;21.066;2023-05-07T07:55:03;9.90;99.90
23475;DHT22;11910;52.086;21.066;2023-05-07T07:57:28;9.90;99.90
23475;DHT22;11910;52.086;21.066;2023-05-07T07:59:54;9.80;99.90
23475;DHT22;11910;52.086;21.066;2023-05-07T08:02:20;9.90;99.90
23475;DHT22;11910;52.086;21.066;2023-05-07T08:04:46;9.90;99.90
23475;DHT22;11910;52.086;21.066;2023-05-07T08:07:12;10.00;99.90
23475;DHT22;11910;52.086;21.066;2023-05-07T08:09:38;10.00;99.90
23475;DHT22;11910;52.086;21.066;2023-05-07T08:12:05;10.10;99.90
23475;DHT22;11910;52.086;21.066;2023-05-07T08:14:30;10.00;99.90
23475;DHT22;11910;52.086;21.066;2023-05-07T08:16:56;10.00;99.90
23475;DHT22;11910;52.086;21.066;2023-05-07T08:19:22;9.90;99.90
23475;DHT22;11910;52.086;21.066;2023-05-07T08:21:48;9.90;99.90
23475;DHT22;11910;52.086;21.066;2023-05-07T08:24:16;9.80;99.90
23475;DHT22;11910;52.086;21.066;2023-05-07T08:26:42;9.90;99.90
23475;DHT22;11910;52.086;21.066;2023-05-07T08:29:08;9.80;99.90
23475;DHT22;11910;52.086;21.066;2023-05-07T08:31:34;9.70;99.90
23475;DHT22;11910;52.086;21.066;2023-05-07T08:33:59;9.60;99.90
23475;DHT22;11910;52.086;21.066;2023-05-07T08:36:25;9.60;99.90
23475;DHT22;11910;52.086;21.066;2023-05-07T08:38:52;9.50;99.90
23475;DHT22;11910;52.086;21.066;2023-05-07T08:41:18;9.50;99.90
23475;DHT22;11910;52.086;21.066;2023-05-07T08:43:47;9.50;99.90
23475;DHT22;11910;52.086;21.066;2023-05-07T08:46:20;9.40;99.90
23475;DHT22;11910;52.086;21.066;2023-05-07T08:48:50;9.50;99.90
23475;DHT22;11910;52.086;21.066;2023-05-07T08:51:18;9.50;99.90
23475;DHT22;11910;52.086;21.066;2023-05-07T08:53:45;9.50;99.90
23475;DHT22;11910;52.086;21.066;2023-05-07T08:56:11;9.60;99.90
23475;DHT22;11910;52.086;21.066;2023-05-07T08:58:37;9.50;99.90
23475;DHT22;11910;52.086;21.066;2023-05-07T09:01:09;9.60;99.90
23475;DHT22;11910;52.086;21.066;2023-05-07T09:03:37;9.60;99.90
23475;DHT22;11910;52.086;21.066;2023-05-07T09:06:03;9.50;99.90
23475;DHT22;11910;52.086;21.066;2023-05-07T09:08:29;9.60;99.90
23475;DHT22;11910;52.086;21.066;2023-05-07T09:10:54;9.50;99.90
23475;DHT22;11910;52.086;21.066;2023-05-07T09:13:20;9.50;99.90
23475;DHT22;11910;52.086;21.066;2023-05-07T09:15:45;9.40;99.90
23475;DHT22;11910;52.086;21.066;2023-05-07T09:18:12;9.50;99.90
23475;DHT22;11910;52.086;21.066;2023-05-07T09:20:39;9.70;99.90
23475;DHT22;11910;52.086;21.066;2023-05-07T09:23:09;9.80;99.90
23475;DHT22;11910;52.086;21.066;2023-05-07T09:25:36;9.90;99.90
23475;DHT22;11910;52.086;21.066;2023-05-07T09:28:03;10.00;99.90
23475;DHT22;11910;52.086;21.066;2023-05-07T09:30:30;10.10;99.90
23475;DHT22;11910;52.086;21.066;2023-05-07T09:32:58;10.30;99.90
23475;DHT22;11910;52.086;21.066;2023-05-07T09:35:25;10.30;99.90
23475;DHT22;11910;52.086;21.066;2023-05-07T09:37:56;10.30;99.90
23475;DHT22;11910;52.086;21.066;2023-05-07T09:40:30;10.30;99.90
23475;DHT22;11910;52.086;21.066;2023-05-07T09:42:56;10.30;99.90
23475;DHT22;11910;52.086;21.066;2023-05-07T09:45:25;10.30;99.90
23475;DHT22;11910;52.086;21.066;2023-05-07T09:47:54;10.20;99.90
23475;DHT22;11910;52.086;21.066;2023-05-07T09:50:30;10.10;99.90
23475;DHT22;11910;52.086;21.066;2023-05-07T09:52:58;10.20;99.90
23475;DHT22;11910;52.086;21.066;2023-05-07T09:55:24;10.10;99.90
23475;DHT22;11910;52.086;21.066;2023-05-07T09:57:51;10.20;99.90
23475;DHT22;11910;52.086;21.066;2023-05-07T10:00:19;10.20;99.90
23475;DHT22;11910;52.086;21.066;2023-05-07T10:02:47;10.10;99.90
23475;DHT22;11910;52.086;21.066;2023-05-07T10:05:14;10.10;99.90
23475;DHT22;11910;52.086;21.066;2023-05-07T10:07:41;10.10;99.90
23475;DHT22;11910;52.086;21.066;2023-05-07T10:10:07;10.10;99.90
23475;DHT22;11910;52.086;21.066;2023-05-07T10:12:33;10.10;99.90
23475;DHT22;11910;52.086;21.066;2023-05-07T10:15:06;10.20;99.90
23475;DHT22;11910;52.086;21.066;2023-05-07T10:17:35;10.10;99.90
23475;DHT22;11910;52.086;21.066;2023-05-07T10:20:00;10.20;99.90
23475;DHT22;11910;52.086;21.066;2023-05-07T10:22:27;10.20;99.90
23475;DHT22;11910;52.086;21.066;2023-05-07T10:24:53;10.20;99.90
23475;DHT22;11910;52.086;21.066;2023-05-07T10:27:21;10.20;99.90
23475;DHT22;11910;52.086;21.066;2023-05-07T10:30:31;10.20;99.90
23475;DHT22;11910;52.086;21.066;2023-05-07T10:32:56;10.20;99.90
23475;DHT22;11910;52.086;21.066;2023-05-07T10:35:26;10.20;99.90
23475;DHT22;11910;52.086;21.066;2023-05-07T10:37:53;10.20;99.90
23475;DHT22;11910;52.086;21.066;2023-05-07T10:40:20;10.20;99.90
23475;DHT22;11910;52.086;21.066;2023-05-07T10:43:03;10.20;99.90
23475;DHT22;11910;52.086;21.066;2023-05-07T10:45:32;10.20;99.90
23475;DHT22;11910;52.086;21.066;2023-05-07T10:48:08;10.20;99.90
23475;DHT22;11910;52.086;21.066;2023-05-07T10:50:34;10.30;99.90
23475;DHT22;11910;52.086;21.066;2023-05-07T10:55:51;10.40;99.90
23475;DHT22;11910;52.086;21.066;2023-05-07T10:58:36;10.40;99.90
23475;DHT22;11910;52.086;21.066;2023-05-07T11:01:03;10.40;99.90
23475;DHT22;11910;52.086;21.066;2023-05-07T11:03:29;10.50;99.90
23475;DHT22;11910;52.086;21.066;2023-05-07T11:06:12;10.50;99.90
23475;DHT22;11910;52.086;21.066;2023-05-07T11:08:56;10.50;99.90
23475;DHT22;11910;52.086;21.066;2023-05-07T11:11:47;10.50;99.80
23475;DHT22;11910;52.086;21.066;2023-05-07T11:17:08;10.60;99.90
23475;DHT22;11910;52.086;21.066;2023-05-07T11:19:48;10.70;99.90
23475;DHT22;11910;52.086;21.066;2023-05-07T11:22:44;10.80;99.90
23475;DHT22;11910;52.086;21.066;2023-05-07T11:25:10;10.80;99.10
23475;DHT22;11910;52.086;21.066;2023-05-07T11:27:36;10.80;99.90
23475;DHT22;11910;52.086;21.066;2023-05-07T11:30:02;10.80;99.90
23475;DHT22;11910;52.086;21.066;2023-05-07T11:32:31;10.80;99.90
23475;DHT22;11910;52.086;21.066;2023-05-07T11:34:59;10.80;99.40
23475;DHT22;11910;52.086;21.066;2023-05-07T11:37:26;10.80;99.90
23475;DHT22;11910;52.086;21.066;2023-05-07T11:40:06;10.80;99.50
23475;DHT22;11910;52.086;21.066;2023-05-07T11:42:34;11.00;99.90
23475;DHT22;11910;52.086;21.066;2023-05-07T11:45:01;11.10;99.70
23475;DHT22;11910;52.086;21.066;2023-05-07T11:47:30;11.20;99.20
23475;DHT22;11910;52.086;21.066;2023-05-07T11:49:55;11.30;97.90
23475;DHT22;11910;52.086;21.066;2023-05-07T11:52:23;11.40;97.90
23475;DHT22;11910;52.086;21.066;2023-05-07T11:54:53;11.60;98.60
23475;DHT22;11910;52.086;21.066;2023-05-07T11:57:20;11.80;97.30
23475;DHT22;11910;52.086;21.066;2023-05-07T11:59:47;11.80;97.20
23475;DHT22;11910;52.086;21.066;2023-05-07T12:02:14;11.80;95.90
23475;DHT22;11910;52.086;21.066;2023-05-07T12:04:41;11.70;96.50
23475;DHT22;11910;52.086;21.066;2023-05-07T12:07:16;11.60;96.80
23475;DHT22;11910;52.086;21.066;2023-05-07T12:09:42;11.70;96.50
23475;DHT22;11910;52.086;21.066;2023-05-07T12:12:08;11.70;97.90
23475;DHT22;11910;52.086;21.066;2023-05-07T12:14:41;11.70;95.90
23475;DHT22;11910;52.086;21.066;2023-05-07T12:17:08;11.60;96.30
23475;DHT22;11910;52.086;21.066;2023-05-07T12:19:35;11.60;96.00
23475;DHT22;11910;52.086;21.066;2023-05-07T12:22:02;11.50;96.30
23475;DHT22;11910;52.086;21.066;2023-05-07T12:24:28;11.50;97.20
23475;DHT22;11910;52.086;21.066;2023-05-07T12:26:53;11.40;95.90
23475;DHT22;11910;52.086;21.066;2023-05-07T12:29:22;11.40;97.30
23475;DHT22;11910;52.086;21.066;2023-05-07T12:31:49;11.50;97.10
23475;DHT22;11910;52.086;21.066;2023-05-07T12:34:15;11.60;97.40
23475;DHT22;11910;52.086;21.066;2023-05-07T12:36:41;11.70;97.30
23475;DHT22;11910;52.086;21.066;2023-05-07T12:39:07;11.90;95.20
23475;DHT22;11910;52.086;21.066;2023-05-07T12:41:55;12.00;95.50
23475;DHT22;11910;52.086;21.066;2023-05-07T12:44:28;12.40;94.20
23475;DHT22;11910;52.086;21.066;2023-05-07T12:46:54;12.80;95.00
23475;DHT22;11910;52.086;21.066;2023-05-07T12:49:20;13.20;94.80
23475;DHT22;11910;52.086;21.066;2023-05-07T12:51:47;13.30;92.60
23475;DHT22;11910;52.086;21.066;2023-05-07T12:54:27;13.30;93.10
23475;DHT22;11910;52.086;21.066;2023-05-07T12:57:03;13.40;91.50
23475;DHT22;11910;52.086;21.066;2023-05-07T12:59:37;13.70;90.80
23475;DHT22;11910;52.086;21.066;2023-05-07T13:02:03;13.50;91.00
23475;DHT22;11910;52.086;21.066;2023-05-07T13:04:29;13.30;91.30
23475;DHT22;11910;52.086;21.066;2023-05-07T13:06:55;13.20;92.40
23475;DHT22;11910;52.086;21.066;2023-05-07T13:09:20;13.30;90.60
23475;DHT22;11910;52.086;21.066;2023-05-07T13:11:46;13.90;88.20
23475;DHT22;11910;52.086;21.066;2023-05-07T13:14:12;13.80;89.80
23475;DHT22;11910;52.086;21.066;2023-05-07T13:16:38;13.80;90.20
23475;DHT22;11910;52.086;21.066;2023-05-07T13:19:04;13.60;90.60
23475;DHT22;11910;52.086;21.066;2023-05-07T13:21:30;13.50;90.10
23475;DHT22;11910;52.086;21.066;2023-05-07T13:23:58;13.40;89.80
23475;DHT22;11910;52.086;21.066;2023-05-07T13:26:25;13.40;91.10
23475;DHT22;11910;52.086;21.066;2023-05-07T13:28:51;13.40;90.60
23475;DHT22;11910;52.086;21.066;2023-05-07T13:31:17;13.30;89.20
23475;DHT22;11910;52.086;21.066;2023-05-07T13:33:43;13.30;89.10
23475;DHT22;11910;52.086;21.066;2023-05-07T13:36:09;13.20;90.10
23475;DHT22;11910;52.086;21.066;2023-05-07T13:38:34;13.10;87.70
23475;DHT22;11910;52.086;21.066;2023-05-07T13:41:00;13.00;91.10
23475;DHT22;11910;52.086;21.066;2023-05-07T13:43:26;13.00;90.60
23475;DHT22;11910;52.086;21.066;2023-05-07T13:45:51;12.90;90.70
23475;DHT22;11910;52.086;21.066;2023-05-07T13:48:17;12.90;91.00
23475;DHT22;11910;52.086;21.066;2023-05-07T13:50:42;12.80;90.60
23475;DHT22;11910;52.086;21.066;2023-05-07T13:53:08;12.80;89.90
23475;DHT22;11910;52.086;21.066;2023-05-07T13:55:34;13.10;89.60
23475;DHT22;11910;52.086;21.066;2023-05-07T13:58:01;14.10;88.60
23475;DHT22;11910;52.086;21.066;2023-05-07T14:00:28;15.70;85.80
23475;DHT22;11910;52.086;21.066;2023-05-07T14:02:54;17.10;81.40
23475;DHT22;11910;52.086;21.066;2023-05-07T14:05:21;18.50;73.10
23475;DHT22;11910;52.086;21.066;2023-05-07T14:07:49;17.40;72.90
23475;DHT22;11910;52.086;21.066;2023-05-07T14:10:17;16.70;72.20
23475;DHT22;11910;52.086;21.066;2023-05-07T14:12:44;16.40;74.90
23475;DHT22;11910;52.086;21.066;2023-05-07T14:15:11;17.60;72.70
23475;DHT22;11910;52.086;21.066;2023-05-07T14:17:37;18.50;68.70
23475;DHT22;11910;52.086;21.066;2023-05-07T14:20:03;19.70;66.40
23475;DHT22;11910;52.086;21.066;2023-05-07T14:22:29;20.70;64.30
23475;DHT22;11910;52.086;21.066;2023-05-07T14:24:54;21.10;59.40
23475;DHT22;11910;52.086;21.066;2023-05-07T14:27:20;19.50;60.70
23475;DHT22;11910;52.086;21.066;2023-05-07T14:29:46;18.30;65.40
23475;DHT22;11910;52.086;21.066;2023-05-07T14:32:19;17.60;64.50
23475;DHT22;11910;52.086;21.066;2023-05-07T14:34:45;16.50;67.00
23475;DHT22;11910;52.086;21.066;2023-05-07T14:37:10;16.00;70.00
23475;DHT22;11910;52.086;21.066;2023-05-07T14:39:36;16.00;70.70
23475;DHT22;11910;52.086;21.066;2023-05-07T14:42:02;16.30;69.90
23475;DHT22;11910;52.086;21.066;2023-05-07T14:44:28;16.30;70.10
23475;DHT22;11910;52.086;21.066;2023-05-07T14:46:54;16.00;71.80
23475;DHT22;11910;52.086;21.066;2023-05-07T14:49:19;15.70;70.80
23475;DHT22;11910;52.086;21.066;2023-05-07T14:51:46;15.40;71.50
23475;DHT22;11910;52.086;21.066;2023-05-07T14:54:13;15.00;70.30
23475;DHT22;11910;52.086;21.066;2023-05-07T14:56:39;15.90;71.70
23475;DHT22;11910;52.086;21.066;2023-05-07T14:59:05;15.40;69.30
23475;DHT22;11910;52.086;21.066;2023-05-07T15:01:31;15.10;69.50
23475;DHT22;11910;52.086;21.066;2023-05-07T15:03:57;16.20;69.30
23475;DHT22;11910;52.086;21.066;2023-05-07T15:06:23;17.60;64.90
23475;DHT22;11910;52.086;21.066;2023-05-07T15:08:49;18.70;62.80
23475;DHT22;11910;52.086;21.066;2023-05-07T15:11:15;18.90;63.40
23475;DHT22;11910;52.086;21.066;2023-05-07T15:13:42;19.60;60.20
23475;DHT22;11910;52.086;21.066;2023-05-07T15:16:08;20.40;58.70
23475;DHT22;11910;52.086;21.066;2023-05-07T15:18:33;21.20;56.00
23475;DHT22;11910;52.086;21.066;2023-05-07T15:20:59;21.60;55.00
23475;DHT22;11910;52.086;21.066;2023-05-07T15:23:25;22.30;54.20
23475;DHT22;11910;52.086;21.066;2023-05-07T15:25:52;21.10;54.60
23475;DHT22;11910;52.086;21.066;2023-05-07T15:28:17;22.20;53.70
23475;DHT22;11910;52.086;21.066;2023-05-07T15:30:43;22.70;53.40